createdAt,value
2022-08-05T00:00:30.033Z,63.80
2022-08-05T00:01:29.341Z,63.70
2022-08-05T00:02:30.028Z,63.70
2022-08-05T00:03:29.009Z,63.60
2022-08-05T00:04:29.021Z,63.60
2022-08-05T00:06:02.890Z,63.60
2022-08-05T00:06:33.245Z,63.60
2022-08-05T00:07:59.664Z,63.60
2022-08-05T00:08:34.395Z,63.60
2022-08-05T00:09:29.982Z,63.60
2022-08-05T00:10:28.923Z,63.60
2022-08-05T00:11:30.598Z,63.48
2022-08-05T00:12:29.903Z,63.48
2022-08-05T00:13:38.360Z,63.60
2022-08-05T00:14:31.445Z,63.70
2022-08-05T00:15:58.207Z,63.80
2022-08-05T00:16:35.365Z,64.00
2022-08-05T00:17:30.041Z,64.20
2022-08-05T00:18:28.879Z,64.50
2022-08-05T00:19:33.432Z,64.70
2022-08-05T00:20:29.835Z,64.92
2022-08-05T00:21:30.669Z,64.92
2022-08-05T00:22:28.797Z,64.50
2022-08-05T00:23:44.659Z,64.13
2022-08-05T00:24:30.919Z,64.43
2022-08-05T00:25:28.765Z,64.73
2022-08-05T00:26:29.771Z,65.02
2022-08-05T00:27:36.262Z,65.25
2022-08-05T00:28:29.962Z,65.55
2022-08-05T00:29:37.764Z,65.85
2022-08-05T00:30:32.116Z,66.35
2022-08-05T00:31:54.113Z,66.55
2022-08-05T00:32:29.695Z,66.78
2022-08-05T00:34:53.755Z,66.97
2022-08-05T00:34:56.126Z,66.97
2022-08-05T00:35:33.325Z,66.94
2022-08-05T00:37:11.023Z,66.94
2022-08-05T00:37:35.839Z,66.94
2022-08-05T00:38:33.920Z,66.85
2022-08-05T00:39:28.706Z,66.94
2022-08-05T00:40:29.598Z,66.94
2022-08-05T00:41:28.613Z,67.04
2022-08-05T00:42:31.535Z,67.14
2022-08-05T00:43:28.579Z,67.24
2022-08-05T00:44:30.848Z,67.34
2022-08-05T00:45:43.033Z,67.44
2022-08-05T00:46:42.508Z,68.23
2022-08-05T00:47:53.129Z,69.13
2022-08-05T00:48:31.431Z,69.85
2022-08-05T00:49:32.847Z,70.25
2022-08-05T00:50:29.498Z,70.75
2022-08-05T00:51:51.258Z,71.15
2022-08-05T00:52:29.470Z,71.58
2022-08-05T00:53:45.141Z,71.98
2022-08-05T00:54:30.160Z,72.28
2022-08-05T00:55:42.217Z,73.07
2022-08-05T00:56:29.422Z,74.10
2022-08-05T00:57:38.456Z,74.60
2022-08-05T00:58:29.421Z,75.29
2022-08-05T00:59:44.289Z,75.69
2022-08-05T01:00:29.430Z,76.32
2022-08-05T01:01:42.613Z,76.53
2022-08-05T01:02:29.361Z,76.92
2022-08-05T01:03:30.920Z,77.32
2022-08-05T01:04:29.962Z,78.22
2022-08-05T01:05:28.330Z,80.00
2022-08-05T01:06:32.462Z,81.90
2022-08-05T01:07:31.844Z,91.89
2022-08-05T01:08:41.838Z,99.99
2022-08-05T01:09:30.356Z,99.34
2022-08-05T01:10:28.272Z,95.48
2022-08-05T01:11:37.086Z,91.62
2022-08-05T01:12:29.918Z,89.30
2022-08-05T01:13:58.788Z,87.10
2022-08-05T01:14:29.264Z,84.93
2022-08-05T01:15:36.198Z,83.23
2022-08-05T01:16:29.202Z,80.32
2022-08-05T01:17:28.195Z,78.68
2022-08-05T01:18:28.177Z,77.37
2022-08-05T01:19:56.443Z,76.98
2022-08-05T01:20:29.176Z,76.07
2022-08-05T01:21:38.118Z,75.17
2022-08-05T01:22:29.136Z,74.37
2022-08-05T01:23:34.883Z,73.63
2022-08-05T01:24:30.175Z,72.83
2022-08-05T01:25:41.050Z,72.53
2022-08-05T01:26:29.112Z,72.03
2022-08-05T01:27:28.124Z,71.63
2022-08-05T01:28:29.066Z,71.03
2022-08-05T01:29:28.056Z,70.53
2022-08-05T01:30:33.747Z,70.12
2022-08-05T01:31:29.065Z,69.82
2022-08-05T01:32:28.018Z,69.62
2022-08-05T01:33:28.008Z,69.26
2022-08-05T01:34:28.997Z,69.06
2022-08-05T01:35:52.239Z,68.96
2022-08-05T01:36:28.968Z,69.06
2022-08-05T01:37:28.138Z,68.85
2022-08-05T01:38:30.011Z,67.65
2022-08-05T01:39:46.341Z,68.15
2022-08-05T01:40:29.169Z,68.69
2022-08-05T01:41:27.921Z,68.89
2022-08-05T01:42:27.957Z,68.76
2022-08-05T01:43:27.898Z,68.35
2022-08-05T01:44:34.215Z,68.35
2022-08-05T01:45:28.869Z,68.46
2022-08-05T01:46:42.868Z,68.79
2022-08-05T01:47:38.986Z,68.79
2022-08-05T01:48:28.829Z,68.35
2022-08-05T01:49:27.828Z,69.06
2022-08-05T01:50:29.641Z,69.49
2022-08-05T01:51:29.414Z,69.29
2022-08-05T01:52:27.789Z,70.69
2022-08-05T01:53:54.710Z,71.30
2022-08-05T01:54:28.760Z,70.89
2022-08-05T01:55:27.757Z,71.59
2022-08-05T01:58:10.381Z,70.06
2022-08-05T01:58:12.869Z,71.09
2022-08-05T01:58:40.242Z,70.50
2022-08-05T01:59:28.710Z,69.16
2022-08-05T02:00:30.305Z,68.26
2022-08-05T02:01:27.722Z,67.55
2022-08-05T02:02:28.411Z,66.65
2022-08-05T02:03:31.907Z,66.25
2022-08-05T02:04:28.671Z,65.55
2022-08-05T02:05:28.729Z,65.05
2022-08-05T02:06:37.151Z,64.72
2022-08-05T02:07:30.384Z,64.31
2022-08-05T02:08:30.869Z,64.22
2022-08-05T02:09:28.259Z,64.31
2022-08-05T02:10:28.679Z,64.15
2022-08-05T02:11:33.304Z,63.64
2022-08-05T02:12:28.567Z,63.34
2022-08-05T02:13:27.552Z,63.34
2022-08-05T02:14:28.531Z,63.04
2022-08-05T02:15:33.352Z,63.04
2022-08-05T02:16:28.525Z,62.54
2022-08-05T02:18:27.624Z,62.44
2022-08-05T02:18:34.556Z,62.04
2022-08-05T02:19:28.482Z,61.94
2022-08-05T02:20:28.470Z,61.64
2022-08-05T02:21:27.480Z,61.44
2022-08-05T02:22:27.539Z,61.24
2022-08-05T02:23:27.461Z,60.94
2022-08-05T02:24:27.422Z,60.74
2022-08-05T02:25:27.421Z,60.44
2022-08-05T02:26:28.421Z,60.74
2022-08-05T02:27:29.873Z,60.74
2022-08-05T02:28:31.269Z,60.53
2022-08-05T02:29:58.626Z,60.53
2022-08-05T02:30:28.344Z,60.33
2022-08-05T02:31:28.331Z,60.33
2022-08-05T02:32:30.540Z,60.33
2022-08-05T02:33:38.359Z,60.14
2022-08-05T02:34:28.304Z,59.74
2022-08-05T02:35:28.000Z,59.53
2022-08-05T02:36:31.185Z,59.23
2022-08-05T02:37:27.353Z,59.03
2022-08-05T02:38:27.255Z,58.53
2022-08-05T02:39:28.293Z,58.63
2022-08-05T02:40:27.519Z,58.13
2022-08-05T02:41:28.771Z,58.03
2022-08-05T02:42:31.892Z,57.83
2022-08-05T02:43:28.213Z,57.73
2022-08-05T02:44:27.185Z,57.43
2022-08-05T02:45:27.176Z,57.13
2022-08-05T02:46:27.720Z,56.93
2022-08-05T02:48:06.901Z,56.73
2022-08-05T02:48:29.675Z,56.02
2022-08-05T02:49:27.136Z,56.33
2022-08-05T02:50:28.124Z,56.13
2022-08-05T02:51:28.163Z,55.82
2022-08-05T02:52:30.641Z,55.63
2022-08-05T02:53:27.097Z,55.52
2022-08-05T02:54:35.845Z,55.32
2022-08-05T02:55:54.358Z,55.13
2022-08-05T02:56:28.059Z,55.13
2022-08-05T02:58:09.654Z,54.52
2022-08-05T02:58:28.855Z,54.22
2022-08-05T02:59:27.831Z,53.82
2022-08-05T03:00:27.112Z,54.02
2022-08-05T03:01:27.314Z,54.22
2022-08-05T03:02:27.470Z,54.02
2022-08-05T03:03:26.987Z,53.62
2022-08-05T03:04:27.969Z,53.32
2022-08-05T03:06:56.472Z,52.82
2022-08-05T03:06:56.562Z,53.22
2022-08-05T03:07:59.392Z,52.42
2022-08-05T03:08:30.057Z,52.22
2022-08-05T03:09:37.648Z,51.92
2022-08-05T03:10:27.920Z,52.22
2022-08-05T03:11:56.586Z,52.12
2022-08-05T03:12:27.880Z,52.01
2022-08-05T03:13:27.686Z,52.12
2022-08-05T03:14:27.859Z,52.24
2022-08-05T03:15:26.850Z,51.92
2022-08-05T03:16:26.881Z,51.94
2022-08-05T03:17:26.942Z,51.84
2022-08-05T03:18:30.029Z,51.64
2022-08-05T03:19:34.121Z,51.44
2022-08-05T03:20:27.790Z,51.32
2022-08-05T03:21:28.675Z,51.32
2022-08-05T03:22:32.210Z,51.44
2022-08-05T03:23:27.767Z,51.24
2022-08-05T03:24:30.011Z,51.24
2022-08-05T03:25:32.376Z,51.14
2022-08-05T03:26:30.913Z,51.14
2022-08-05T03:27:39.299Z,51.14
2022-08-05T03:28:27.722Z,50.94
2022-08-05T03:29:44.606Z,50.74
2022-08-05T03:30:30.123Z,50.54
2022-08-05T03:31:56.721Z,50.51
2022-08-05T03:32:31.047Z,50.21
2022-08-05T03:33:42.346Z,50.31
2022-08-05T03:34:27.651Z,50.24
2022-08-05T03:35:26.633Z,49.91
2022-08-05T03:36:30.612Z,49.81
2022-08-05T03:37:26.883Z,49.41
2022-08-05T03:38:33.195Z,49.31
2022-08-05T03:39:27.788Z,49.11
2022-08-05T03:40:32.037Z,49.01
2022-08-05T03:41:33.286Z,48.91
2022-08-05T03:42:28.906Z,48.71
2022-08-05T03:44:09.202Z,48.51
2022-08-05T03:44:29.083Z,48.21
2022-08-05T03:45:26.536Z,48.21
2022-08-05T03:46:29.585Z,48.11
2022-08-05T03:47:26.531Z,47.81
2022-08-05T03:48:27.476Z,47.81
2022-08-05T03:49:52.150Z,47.53
2022-08-05T03:50:30.181Z,47.41
2022-08-05T03:52:37.709Z,47.00
2022-08-05T03:52:39.200Z,46.41
2022-08-05T03:55:00.468Z,46.30
2022-08-05T03:55:54.775Z,46.30
2022-08-05T03:56:04.946Z,46.20
2022-08-05T03:56:34.783Z,46.11
2022-08-05T03:57:35.135Z,45.90
2022-08-05T03:58:29.147Z,45.50
2022-08-05T03:59:26.355Z,45.40
2022-08-05T04:00:26.348Z,45.30
2022-08-05T04:01:26.395Z,44.70
2022-08-05T04:02:38.905Z,44.70
2022-08-05T04:03:28.733Z,44.20
2022-08-05T04:04:26.568Z,44.00
2022-08-05T04:05:27.947Z,43.90
2022-08-05T04:06:27.319Z,43.70
2022-08-05T04:07:26.267Z,43.60
2022-08-05T04:08:35.207Z,43.40
2022-08-05T04:09:27.244Z,43.30
2022-08-05T04:10:27.911Z,43.22
2022-08-05T04:11:50.409Z,43.12
2022-08-05T04:12:27.291Z,43.02
2022-08-05T04:13:26.205Z,42.91
2022-08-05T04:14:29.789Z,43.22
2022-08-05T04:15:26.178Z,43.02
2022-08-05T04:16:32.597Z,42.72
2022-08-05T04:17:55.705Z,42.52
2022-08-05T04:18:27.165Z,42.32
2022-08-05T04:19:26.134Z,42.02
2022-08-05T04:20:26.126Z,41.71
2022-08-05T04:22:09.084Z,41.61
2022-08-05T04:22:27.108Z,41.51
2022-08-05T04:23:57.124Z,41.19
2022-08-05T04:24:27.607Z,41.19
2022-08-05T04:25:57.759Z,40.99
2022-08-05T04:26:27.058Z,40.99
2022-08-05T04:27:41.703Z,40.89
2022-08-05T04:28:28.577Z,41.49
2022-08-05T04:29:27.157Z,41.09
2022-08-05T04:30:26.560Z,40.69
2022-08-05T04:31:27.712Z,40.89
2022-08-05T04:32:31.014Z,40.79
2022-08-05T04:34:18.782Z,40.79
2022-08-05T04:34:33.443Z,41.09
2022-08-05T04:35:26.949Z,41.19
2022-08-05T04:36:45.961Z,41.89
2022-08-05T04:38:02.070Z,41.49
2022-08-05T04:38:39.561Z,41.39
2022-08-05T04:39:27.590Z,41.39
2022-08-05T04:40:25.914Z,41.49
2022-08-05T04:41:36.697Z,42.02
2022-08-05T04:42:26.880Z,42.91
2022-08-05T04:43:25.978Z,42.82
2022-08-05T04:44:29.467Z,42.72
2022-08-05T04:45:47.812Z,42.82
2022-08-05T04:46:27.841Z,42.61
2022-08-05T04:47:26.181Z,42.41
2022-08-05T04:48:27.649Z,42.32
2022-08-05T04:49:38.850Z,42.21
2022-08-05T04:50:34.387Z,42.91
2022-08-05T04:51:30.317Z,42.82
2022-08-05T04:52:27.381Z,42.72
2022-08-05T04:53:25.752Z,42.61
2022-08-05T04:54:25.741Z,42.91
2022-08-05T04:56:14.501Z,43.52
2022-08-05T04:56:34.553Z,43.34
2022-08-05T04:57:29.250Z,43.22
2022-08-05T04:58:25.694Z,43.02
2022-08-05T04:59:38.807Z,42.91
2022-08-05T05:00:26.682Z,42.91
2022-08-05T05:02:05.445Z,42.72
2022-08-05T05:02:37.508Z,42.91
2022-08-05T05:03:26.646Z,42.72
2022-08-05T05:04:26.635Z,42.72
2022-08-05T05:05:28.906Z,42.52
2022-08-05T05:06:39.907Z,42.72
2022-08-05T05:07:29.367Z,42.72
2022-08-05T05:08:30.393Z,42.82
2022-08-05T05:09:25.591Z,42.82
2022-08-05T05:10:25.594Z,42.82
2022-08-05T05:11:25.548Z,43.02
2022-08-05T05:12:27.229Z,43.22
2022-08-05T05:13:25.525Z,43.52
2022-08-05T05:14:28.069Z,43.82
2022-08-05T05:16:01.938Z,43.52
2022-08-05T05:16:30.452Z,44.20
2022-08-05T05:17:56.485Z,44.20
2022-08-05T05:18:30.982Z,44.70
2022-08-05T05:19:27.439Z,44.70
2022-08-05T05:20:28.346Z,44.70
2022-08-05T05:21:27.075Z,44.90
2022-08-05T05:22:26.517Z,45.00
2022-08-05T05:23:25.415Z,45.40
2022-08-05T05:24:56.165Z,45.20
2022-08-05T05:25:32.658Z,45.70
2022-08-05T05:26:28.768Z,45.20
2022-08-05T05:27:44.750Z,45.30
2022-08-05T05:28:26.358Z,45.88
2022-08-05T05:29:25.347Z,46.68
2022-08-05T05:30:29.263Z,46.68
2022-08-05T05:31:25.318Z,47.36
2022-08-05T05:32:25.317Z,47.86
2022-08-05T05:33:25.298Z,48.54
2022-08-05T05:34:27.095Z,48.54
2022-08-05T05:35:25.298Z,49.34
2022-08-05T05:36:25.277Z,50.12
2022-08-05T05:37:37.199Z,50.22
2022-08-05T05:38:27.445Z,51.72
2022-08-05T05:39:25.300Z,51.20
2022-08-05T05:40:26.254Z,49.99
2022-08-05T05:41:25.215Z,50.59
2022-08-05T05:42:26.208Z,51.39
2022-08-05T05:43:57.319Z,51.59
2022-08-05T05:44:36.484Z,54.69
2022-08-05T05:45:26.160Z,55.72
2022-08-05T05:46:25.172Z,54.62
2022-08-05T05:47:30.557Z,54.12
2022-08-05T05:48:27.301Z,54.42
2022-08-05T05:49:25.129Z,53.72
2022-08-05T05:50:25.871Z,53.82
2022-08-05T05:51:25.539Z,53.22
2022-08-05T05:52:25.479Z,52.39
2022-08-05T05:53:25.081Z,52.29
2022-08-05T05:54:50.843Z,53.19
2022-08-05T05:55:52.030Z,54.99
2022-08-05T05:56:31.519Z,54.69
2022-08-05T05:57:26.168Z,55.57
2022-08-05T05:58:31.826Z,56.34
2022-08-05T05:59:26.011Z,58.54
2022-08-05T06:00:27.525Z,62.04
2022-08-05T06:01:28.340Z,62.60
2022-08-05T06:02:32.685Z,65.00
2022-08-05T06:03:28.624Z,66.00
2022-08-05T06:04:25.991Z,68.40
2022-08-05T06:05:24.972Z,69.93
2022-08-05T06:06:24.933Z,67.13
2022-08-05T06:07:42.032Z,64.33
2022-08-05T06:08:32.642Z,63.73
2022-08-05T06:09:51.358Z,63.63
2022-08-05T06:10:25.894Z,62.43
2022-08-05T06:11:24.874Z,63.06
2022-08-05T06:12:27.168Z,62.16
2022-08-05T06:13:24.882Z,60.77
2022-08-05T06:14:24.843Z,58.86
2022-08-05T06:15:24.836Z,59.86
2022-08-05T06:16:28.596Z,58.86
2022-08-05T06:17:31.023Z,58.47
2022-08-05T06:18:31.286Z,56.87
2022-08-05T06:19:26.246Z,61.16
2022-08-05T06:20:25.787Z,62.46
2022-08-05T06:21:24.763Z,60.93
2022-08-05T06:22:25.756Z,61.24
2022-08-05T06:23:24.765Z,62.20
2022-08-05T06:24:27.253Z,65.67
2022-08-05T06:26:12.813Z,69.02
2022-08-05T06:26:25.718Z,75.41
2022-08-05T06:28:11.407Z,76.91
2022-08-05T06:28:28.436Z,75.55
2022-08-05T06:29:46.464Z,75.55
2022-08-05T06:30:25.695Z,74.79
2022-08-05T06:31:32.180Z,72.39
2022-08-05T06:32:29.106Z,72.59
2022-08-05T06:33:33.255Z,71.83
2022-08-05T06:34:26.466Z,68.52
2022-08-05T06:36:07.664Z,70.62
2022-08-05T06:36:25.968Z,71.33
2022-08-05T06:37:56.725Z,69.62
2022-08-05T06:38:36.134Z,69.46
2022-08-05T06:39:27.083Z,67.96
2022-08-05T06:40:28.048Z,67.86
2022-08-05T06:41:25.559Z,66.46
2022-08-05T06:42:24.542Z,64.96
2022-08-05T06:43:57.867Z,64.46
2022-08-05T06:44:25.515Z,64.06
2022-08-05T06:45:44.944Z,63.03
2022-08-05T06:46:30.219Z,63.13
2022-08-05T06:48:11.435Z,61.90
2022-08-05T06:48:56.186Z,62.10
2022-08-05T06:50:00.789Z,68.06
2022-08-05T06:50:25.450Z,71.32
2022-08-05T06:51:30.114Z,78.17
2022-08-05T06:52:36.618Z,81.08
2022-08-05T06:53:28.252Z,79.45
2022-08-05T06:54:25.968Z,86.16
2022-08-05T06:55:24.393Z,86.76
2022-08-05T06:56:26.586Z,84.21
2022-08-05T06:58:03.858Z,84.61
2022-08-05T06:58:35.141Z,83.91
2022-08-05T06:59:25.336Z,85.64
2022-08-05T07:00:24.821Z,85.74
2022-08-05T07:01:32.088Z,85.19
2022-08-05T07:02:25.314Z,84.69
2022-08-05T07:03:32.341Z,84.03
2022-08-05T07:04:25.321Z,85.23
2022-08-05T07:05:27.676Z,83.13
2022-08-05T07:06:25.265Z,84.03
2022-08-05T07:07:35.443Z,83.53
2022-08-05T07:08:25.259Z,84.23
2022-08-05T07:09:24.921Z,83.19
2022-08-05T07:10:24.286Z,83.49
2022-08-05T07:11:25.639Z,83.09
2022-08-05T07:12:24.200Z,81.56
2022-08-05T07:13:39.460Z,82.64
2022-08-05T07:14:30.251Z,86.47
2022-08-05T07:15:34.683Z,88.18
2022-08-05T07:17:56.257Z,88.20
2022-08-05T07:18:02.048Z,87.56
2022-08-05T07:18:29.079Z,88.01
2022-08-05T07:20:10.550Z,87.35
2022-08-05T07:20:34.146Z,85.39
2022-08-05T07:21:25.742Z,84.45
2022-08-05T07:22:28.631Z,84.36
2022-08-05T07:23:26.419Z,84.30
2022-08-05T07:24:25.058Z,84.97
2022-08-05T07:25:56.203Z,85.31
2022-08-05T07:26:25.870Z,85.55
2022-08-05T07:27:27.780Z,86.19
2022-08-05T07:28:25.029Z,85.99
2022-08-05T07:30:21.884Z,86.05
2022-08-05T07:30:31.705Z,86.34
2022-08-05T07:31:40.832Z,86.03
2022-08-05T07:32:26.240Z,86.77
2022-08-05T07:33:36.561Z,87.05
2022-08-05T07:34:28.593Z,87.39
2022-08-05T07:36:05.058Z,87.88
2022-08-05T07:36:24.941Z,87.68
2022-08-05T07:37:24.153Z,87.79
2022-08-05T07:38:33.720Z,87.39
2022-08-05T07:40:04.362Z,87.49
2022-08-05T07:40:31.968Z,87.49
2022-08-05T07:42:07.481Z,87.98
2022-08-05T07:42:31.478Z,87.83
2022-08-05T07:43:24.871Z,87.93
2022-08-05T07:44:23.843Z,87.57
2022-08-05T07:45:56.628Z,87.23
2022-08-05T07:46:25.837Z,88.13
2022-08-05T07:47:25.864Z,87.83
2022-08-05T07:49:00.821Z,87.88
2022-08-05T07:49:24.784Z,87.79
2022-08-05T07:50:28.844Z,87.74
2022-08-05T07:51:37.281Z,88.04
2022-08-05T07:52:24.753Z,87.45
2022-08-05T07:53:23.739Z,87.50
2022-08-05T07:54:26.594Z,87.60
2022-08-05T07:56:05.869Z,87.46
2022-08-05T07:57:01.343Z,87.26
2022-08-05T07:57:58.956Z,87.16
2022-08-05T07:58:57.447Z,86.77
2022-08-05T07:59:38.311Z,86.87
2022-08-05T08:00:24.665Z,87.16
2022-08-05T08:01:23.726Z,87.16
2022-08-05T08:02:26.397Z,87.02
2022-08-05T08:03:24.628Z,86.72
2022-08-05T08:04:38.112Z,86.52
2022-08-05T08:05:24.606Z,87.06
2022-08-05T08:06:23.593Z,86.96
2022-08-05T08:07:23.634Z,86.82
2022-08-05T08:08:23.567Z,86.82
2022-08-05T08:09:23.566Z,86.87
2022-08-05T08:10:23.617Z,86.47
2022-08-05T08:11:27.509Z,86.77
2022-08-05T08:12:36.903Z,86.77
2022-08-05T08:13:29.197Z,86.96
2022-08-05T08:14:24.510Z,87.02
2022-08-05T08:16:35.233Z,86.63
2022-08-05T08:16:35.948Z,86.27
2022-08-05T08:17:24.622Z,85.93
2022-08-05T08:18:23.469Z,86.03
2022-08-05T08:20:21.652Z,86.17
2022-08-05T08:20:59.832Z,86.33
2022-08-05T08:21:24.431Z,86.33
2022-08-05T08:22:23.431Z,86.38
2022-08-05T08:24:02.598Z,86.29
2022-08-05T08:24:45.984Z,85.59
2022-08-05T08:25:26.913Z,86.68
2022-08-05T08:26:29.426Z,86.34
2022-08-05T08:27:40.360Z,86.05
2022-08-05T08:28:36.067Z,85.16
2022-08-05T08:30:06.115Z,85.61
2022-08-05T08:30:32.700Z,84.86
2022-08-05T08:31:24.333Z,85.25
2022-08-05T08:32:28.100Z,84.66
2022-08-05T08:33:24.323Z,85.39
2022-08-05T08:34:30.693Z,85.39
2022-08-05T08:35:26.671Z,85.49
2022-08-05T08:36:38.830Z,85.55
2022-08-05T08:37:28.042Z,85.69
2022-08-05T08:38:35.199Z,85.59
2022-08-05T08:39:24.292Z,85.49
2022-08-05T08:40:23.224Z,85.69
2022-08-05T08:41:26.287Z,85.99
2022-08-05T08:42:34.446Z,85.59
2022-08-05T08:45:22.625Z,85.69
2022-08-05T08:45:25.239Z,85.89
2022-08-05T08:45:27.096Z,85.99
2022-08-05T08:46:24.160Z,85.59
2022-08-05T08:48:06.233Z,85.69
2022-08-05T08:49:04.201Z,85.79
2022-08-05T08:50:14.572Z,86.09
2022-08-05T08:50:52.574Z,85.79
2022-08-05T08:52:03.214Z,86.09
2022-08-05T08:52:24.379Z,85.79
2022-08-05T08:53:23.086Z,86.05
2022-08-05T08:54:27.404Z,85.45
2022-08-05T08:56:01.924Z,85.35
2022-08-05T08:56:26.990Z,85.31
2022-08-05T08:57:23.036Z,85.31
2022-08-05T08:58:26.057Z,84.97
2022-08-05T08:59:27.542Z,84.58
2022-08-05T09:00:24.025Z,84.24
2022-08-05T09:01:23.030Z,84.53
2022-08-05T09:02:26.560Z,84.44
2022-08-05T09:03:22.969Z,84.00
2022-08-05T09:04:22.958Z,82.78
2022-08-05T09:05:38.618Z,82.87
2022-08-05T09:06:24.158Z,82.87
2022-08-05T09:07:29.081Z,82.48
2022-08-05T09:08:26.630Z,81.78
2022-08-05T09:09:22.912Z,82.22
2022-08-05T09:10:27.798Z,83.47
2022-08-05T09:11:53.042Z,82.28
2022-08-05T09:12:27.313Z,82.64
2022-08-05T09:13:23.872Z,81.35
2022-08-05T09:14:57.715Z,82.38
2022-08-05T09:15:23.841Z,82.97
2022-08-05T09:16:22.824Z,81.98
2022-08-05T09:17:40.516Z,80.79
2022-08-05T09:18:23.811Z,80.95
2022-08-05T09:19:27.662Z,80.56
2022-08-05T09:20:37.736Z,72.45
2022-08-05T09:22:21.798Z,68.66
2022-08-05T09:22:32.051Z,69.26
2022-08-05T09:23:23.763Z,68.66
2022-08-05T09:24:24.300Z,68.99
2022-08-05T09:25:24.376Z,69.85
2022-08-05T09:26:23.716Z,68.01
2022-08-05T09:28:04.449Z,66.09
2022-08-05T09:28:23.686Z,66.59
2022-08-05T09:29:30.937Z,65.86
2022-08-05T09:30:23.807Z,66.26
2022-08-05T09:32:40.886Z,67.25
2022-08-05T09:32:42.351Z,66.09
2022-08-05T09:33:23.637Z,64.88
2022-08-05T09:34:23.627Z,63.99
2022-08-05T09:35:26.659Z,64.68
2022-08-05T09:36:27.916Z,64.48
2022-08-05T09:38:17.763Z,63.59
2022-08-05T09:38:27.717Z,63.79
2022-08-05T09:39:23.666Z,63.69
2022-08-05T09:40:23.615Z,63.76
2022-08-05T09:41:22.560Z,62.68
2022-08-05T09:42:24.166Z,63.17
2022-08-05T09:43:23.529Z,60.90
2022-08-05T09:44:22.520Z,62.60
2022-08-05T09:46:07.454Z,64.58
2022-08-05T09:46:27.952Z,62.51
2022-08-05T09:47:22.515Z,62.71
2022-08-05T09:48:22.501Z,63.40
2022-08-05T09:49:22.492Z,63.40
2022-08-05T09:50:37.506Z,63.03
2022-08-05T09:51:23.471Z,62.84
2022-08-05T09:52:22.749Z,63.03
2022-08-05T09:53:26.148Z,64.42
2022-08-05T09:54:28.976Z,64.61
2022-08-05T09:55:57.872Z,64.42
2022-08-05T09:56:23.393Z,65.23
2022-08-05T09:58:12.478Z,63.95
2022-08-05T09:59:17.018Z,65.96
2022-08-05T10:00:12.459Z,67.35
2022-08-05T10:01:15.364Z,65.66
2022-08-05T10:02:13.523Z,65.50
2022-08-05T10:03:12.420Z,66.09
2022-08-05T10:04:12.437Z,66.58
2022-08-05T10:05:12.420Z,67.28
2022-08-05T10:06:15.469Z,67.44
2022-08-05T10:07:31.893Z,67.35
2022-08-05T10:08:37.588Z,67.80
2022-08-05T10:09:27.837Z,65.04
2022-08-05T10:10:15.625Z,66.52
2022-08-05T10:11:12.335Z,64.05
2022-08-05T10:12:30.757Z,63.98
2022-08-05T10:13:14.631Z,66.06
2022-08-05T10:14:12.311Z,65.17
2022-08-05T10:15:12.294Z,66.55
2022-08-05T10:16:12.306Z,66.13
2022-08-05T10:17:14.089Z,64.84
2022-08-05T10:18:13.264Z,64.84
2022-08-05T10:19:12.245Z,64.84
2022-08-05T10:20:12.242Z,64.54
2022-08-05T10:21:16.438Z,65.80
2022-08-05T10:22:15.718Z,65.11
2022-08-05T10:23:34.677Z,63.62
2022-08-05T10:24:13.628Z,64.45
2022-08-05T10:25:14.463Z,63.75
2022-08-05T10:26:13.953Z,66.82
2022-08-05T10:27:12.184Z,66.59
2022-08-05T10:28:17.226Z,65.80
2022-08-05T10:29:13.149Z,65.70
2022-08-05T10:31:20.969Z,65.77
2022-08-05T10:32:53.401Z,63.79
2022-08-05T10:33:01.410Z,64.78
2022-08-05T10:33:14.937Z,63.27
2022-08-05T10:34:12.088Z,62.87
2022-08-05T10:35:12.068Z,63.56
2022-08-05T10:36:12.070Z,62.68
2022-08-05T10:37:12.070Z,63.76
2022-08-05T10:38:12.044Z,65.05
2022-08-05T10:39:15.194Z,62.45
2022-08-05T10:40:17.977Z,63.53
2022-08-05T10:41:13.865Z,63.24
2022-08-05T10:42:12.000Z,62.74
2022-08-05T10:43:12.447Z,61.59
2022-08-05T10:44:11.997Z,61.00
2022-08-05T10:45:23.591Z,62.21
2022-08-05T10:46:12.951Z,63.00
2022-08-05T10:47:27.016Z,63.10
2022-08-05T10:48:31.695Z,63.20
2022-08-05T10:49:16.902Z,62.71
2022-08-05T10:50:32.251Z,62.87
2022-08-05T10:51:22.037Z,62.57
2022-08-05T10:52:12.892Z,62.65
2022-08-05T10:53:11.885Z,62.15
2022-08-05T10:54:28.882Z,61.66
2022-08-05T10:55:16.133Z,62.55
2022-08-05T10:56:21.151Z,63.73
2022-08-05T10:57:12.838Z,63.63
2022-08-05T10:58:11.827Z,62.55
2022-08-05T10:59:12.492Z,62.32
2022-08-05T11:00:18.506Z,62.71
2022-08-05T11:01:12.795Z,62.62
2022-08-05T11:02:14.124Z,61.56
2022-08-05T11:03:23.148Z,62.08
2022-08-05T11:04:12.803Z,63.07
2022-08-05T11:05:11.746Z,62.87
2022-08-05T11:06:15.362Z,63.34
2022-08-05T11:07:11.977Z,61.85
2022-08-05T11:08:36.527Z,62.65
2022-08-05T11:09:13.225Z,61.72
2022-08-05T11:10:11.694Z,62.45
2022-08-05T11:11:16.475Z,63.24
2022-08-05T11:12:12.678Z,61.16
2022-08-05T11:13:11.667Z,61.96
2022-08-05T11:14:11.718Z,62.35
2022-08-05T11:15:20.402Z,62.74
2022-08-05T11:16:12.626Z,61.36
2022-08-05T11:17:57.116Z,62.94
2022-08-05T11:18:12.972Z,63.37
2022-08-05T11:20:16.826Z,62.48
2022-08-05T11:20:18.313Z,64.15
2022-08-05T11:21:12.569Z,62.81
2022-08-05T11:22:11.559Z,63.82
2022-08-05T11:23:11.592Z,64.42
2022-08-05T11:24:14.737Z,65.34
2022-08-05T11:26:03.458Z,65.96
2022-08-05T11:26:12.520Z,66.65
2022-08-05T11:27:11.502Z,66.49
2022-08-05T11:28:11.514Z,67.80
2022-08-05T11:29:14.341Z,67.31
2022-08-05T11:30:11.464Z,67.61
2022-08-05T11:31:11.464Z,69.32
2022-08-05T11:32:12.442Z,68.30
2022-08-05T11:33:20.858Z,68.30
2022-08-05T11:34:14.745Z,68.76
2022-08-05T11:35:11.421Z,67.87
2022-08-05T11:36:11.403Z,68.53
2022-08-05T11:38:26.315Z,67.64
2022-08-05T11:38:28.626Z,66.92
2022-08-05T11:39:12.429Z,66.03
2022-08-05T11:40:11.364Z,66.92
2022-08-05T11:41:34.815Z,65.63
2022-08-05T11:42:12.336Z,66.42
2022-08-05T11:43:12.327Z,68.10
2022-08-05T11:44:11.315Z,67.02
2022-08-05T11:45:14.558Z,67.94
2022-08-05T11:46:30.624Z,68.24
2022-08-05T11:47:15.233Z,69.26
2022-08-05T11:48:12.275Z,70.08
2022-08-05T11:49:11.267Z,71.80
2022-08-05T11:50:14.334Z,72.20
2022-08-05T11:51:11.257Z,73.22
2022-08-05T11:52:12.260Z,74.65
2022-08-05T11:53:11.225Z,75.34
2022-08-05T11:54:11.216Z,75.93
2022-08-05T11:55:11.198Z,75.84
2022-08-05T11:56:11.321Z,74.71
2022-08-05T11:57:24.926Z,73.35
2022-08-05T11:58:12.242Z,71.44
2022-08-05T11:59:13.837Z,69.49
2022-08-05T12:00:11.149Z,68.37
2022-08-05T12:01:11.159Z,66.85
2022-08-05T12:02:12.107Z,65.73
2022-08-05T12:03:12.166Z,63.96
2022-08-05T12:04:11.099Z,63.93
2022-08-05T12:05:17.999Z,62.28
2022-08-05T12:06:12.100Z,63.10
2022-08-05T12:07:11.070Z,63.23
2022-08-05T12:08:11.653Z,63.85
2022-08-05T12:09:19.921Z,63.46
2022-08-05T12:10:12.085Z,63.53
2022-08-05T12:11:11.023Z,63.30
2022-08-05T12:12:12.031Z,62.57
2022-08-05T12:13:13.961Z,62.68
2022-08-05T12:14:11.995Z,62.15
2022-08-05T12:15:15.124Z,59.88
2022-08-05T12:16:15.028Z,60.77
2022-08-05T12:17:13.092Z,60.67
2022-08-05T12:18:12.414Z,61.36
2022-08-05T12:19:10.936Z,60.18
2022-08-05T12:20:16.790Z,60.97
2022-08-05T12:21:12.283Z,61.03
2022-08-05T12:22:10.903Z,61.85
2022-08-05T12:23:11.004Z,63.06
2022-08-05T12:24:10.903Z,62.90
2022-08-05T12:25:14.375Z,63.71
2022-08-05T12:26:11.858Z,65.59
2022-08-05T12:27:21.505Z,65.43
2022-08-05T12:28:11.836Z,64.94
2022-08-05T12:29:11.869Z,64.84
2022-08-05T12:30:15.318Z,66.22
2022-08-05T12:31:10.807Z,64.01
2022-08-05T12:32:11.797Z,64.44
2022-08-05T12:33:27.427Z,64.04
2022-08-05T12:34:14.622Z,64.87
2022-08-05T12:35:11.787Z,65.95
2022-08-05T12:36:11.760Z,65.13
2022-08-05T12:37:10.796Z,64.51
2022-08-05T12:38:11.730Z,63.71
2022-08-05T12:39:10.766Z,62.79
2022-08-05T12:40:11.329Z,62.70
2022-08-05T12:41:13.238Z,62.57
2022-08-05T12:42:14.847Z,62.77
2022-08-05T12:43:10.668Z,62.17
2022-08-05T12:44:11.541Z,61.71
2022-08-05T12:45:10.663Z,60.79
2022-08-05T12:46:12.484Z,60.59
2022-08-05T12:47:12.443Z,59.83
2022-08-05T12:48:17.512Z,60.13
2022-08-05T12:49:13.086Z,60.72
2022-08-05T12:50:10.601Z,61.31
2022-08-05T12:52:11.131Z,60.89
2022-08-05T12:52:17.588Z,59.67
2022-08-05T12:53:11.579Z,58.78